ADDS METAR Data INFO
IDs: Format: Raw Decoded Include TAF

Data at: 0201 UTC 26 Apr 2017

METAR for:LFOK (Chalons-Vatry(AFB), --, FR)
Text:LFOK 260130Z AUTO 36006KT CAVOK 04/M00 Q1011 NOSIG
Temperature: 4.0°C ( 39°F)
Dewpoint: 0.0°C ( 32°F) [RH = 75%]
Pressure (altimeter):29.85 inches Hg (1011.0 mb)
Winds:from the N (360 degrees) at 7 MPH (6 knots; 3.1 m/s)
Visibility:6 or more sm (10+ km)
Ceiling:ceiling and visibility are OK
Clouds:unknown

TAF for:LFOK (Chalons-Vatry(AFB), --, FR) issued at 2300 UTC 25 Apr 2017
Text:TAF LFOK 252300Z 2600/2624 35010KT CAVOK
Forecast period:0000 UTC 26 April 2017 to 0000 UTC 27 April 2017
Forecast type:FROM: standard forecast or significant change
Winds:from the N (350 degrees) at 12 MPH (10 knots; 5.1 m/s)
Visibility:6 or more sm (10+ km)
Clouds:missing
Weather:NSW (no significant weather)
Text:TEMPO 2616/2620 25015G35KT 3000 SHRA BKN040CB
Forecast period:1600 to 2000 UTC 26 April 2017
Forecast type:TEMPORARY: The following changes expected for less than half the time period
Winds:from the WSW (250 degrees) at 17 MPH (15 knots; 7.7 m/s) gusting to 40 MPH (35 knots; 18.0 m/s)
Visibility: 1.86 sm ( 2.99 km)
Ceiling:4000 feet AGL
Clouds: broken clouds at 4000 feet AGL
Weather:SHRA (rain showers)


Page loaded:  02:01 UTC  |   07:01 PM Pacific  |   08:01 PM Mountain  |   09:01 PM Central  |   10:01 PM Eastern

 

ADVISORIES

FORECASTS

FORECASTS

OBSERVATIONS

USER TOOLS

ABOUT US